sensor_id;sensor_type;location;lat;lon;timestamp;pressure;altitude;pressure_sealevel;temperature;humidity
31225;BME280;17847;31.524;74.366;2023-02-11T00:00:06;98755.91;;;12.71;54.09
31225;BME280;17847;31.524;74.366;2023-02-11T00:02:49;98756.31;;;12.75;52.49
31225;BME280;17847;31.524;74.366;2023-02-11T00:05:31;98774.31;;;12.79;52.55
31225;BME280;17847;31.524;74.366;2023-02-11T00:08:19;98774.72;;;12.76;53.48
31225;BME280;17847;31.524;74.366;2023-02-11T00:11:02;98776.38;;;12.77;52.67
31225;BME280;17847;31.524;74.366;2023-02-11T00:13:51;98780.47;;;12.73;51.85
31225;BME280;17847;31.524;74.366;2023-02-11T00:16:33;98786.59;;;12.74;49.69
31225;BME280;17847;31.524;74.366;2023-02-11T00:19:21;98784.13;;;12.85;50.38
31225;BME280;17847;31.524;74.366;2023-02-11T00:22:04;98788.44;;;12.86;50.34
31225;BME280;17847;31.524;74.366;2023-02-11T00:24:59;98807.66;;;12.95;51.86
31225;BME280;17847;31.524;74.366;2023-02-11T00:27:36;98808.44;;;12.89;50.25
31225;BME280;17847;31.524;74.366;2023-02-11T00:30:31;98814.78;;;12.88;50.21
31225;BME280;17847;31.524;74.366;2023-02-11T00:33:27;98830.97;;;12.86;50.84
31225;BME280;17847;31.524;74.366;2023-02-11T00:36:16;98820.53;;;12.85;49.37
31225;BME280;17847;31.524;74.366;2023-02-11T00:39:06;98821.34;;;12.79;50.00
31225;BME280;17847;31.524;74.366;2023-02-11T00:41:49;98840.56;;;12.74;48.74
31225;BME280;17847;31.524;74.366;2023-02-11T00:44:37;98835.66;;;12.78;49.09
31225;BME280;17847;31.524;74.366;2023-02-11T00:47:20;98836.47;;;12.85;48.96
31225;BME280;17847;31.524;74.366;2023-02-11T00:50:08;98845.91;;;12.87;49.04
31225;BME280;17847;31.524;74.366;2023-02-11T00:52:51;98846.88;;;12.80;49.94
31225;BME280;17847;31.524;74.366;2023-02-11T00:55:39;98845.66;;;12.76;49.67
31225;BME280;17847;31.524;74.366;2023-02-11T00:58:24;98858.94;;;12.76;48.59
31225;BME280;17847;31.524;74.366;2023-02-11T01:01:13;98860.38;;;12.72;48.02
31225;BME280;17847;31.524;74.366;2023-02-11T01:03:55;98859.56;;;12.78;47.17
31225;BME280;17847;31.524;74.366;2023-02-11T01:06:43;98862.41;;;12.76;46.94
31225;BME280;17847;31.524;74.366;2023-02-11T01:09:26;98874.69;;;12.77;47.83
31225;BME280;17847;31.524;74.366;2023-02-11T01:12:22;98869.97;;;12.79;46.30
31225;BME280;17847;31.524;74.366;2023-02-11T01:15:11;98883.09;;;12.81;46.19
31225;BME280;17847;31.524;74.366;2023-02-11T01:18:07;98890.47;;;12.92;47.97
31225;BME280;17847;31.524;74.366;2023-02-11T01:20:51;98897.81;;;12.90;47.68
31225;BME280;17847;31.524;74.366;2023-02-11T01:23:40;98892.50;;;12.90;47.49
31225;BME280;17847;31.524;74.366;2023-02-11T01:26:23;98902.31;;;12.89;46.37
31225;BME280;17847;31.524;74.366;2023-02-11T01:29:11;98903.13;;;12.90;46.25
31225;BME280;17847;31.524;74.366;2023-02-11T01:32:00;98901.09;;;12.92;47.77
31225;BME280;17847;31.524;74.366;2023-02-11T01:34:43;98918.03;;;12.78;45.60
31225;BME280;17847;31.524;74.366;2023-02-11T01:37:33;98908.03;;;12.93;47.17
31225;BME280;17847;31.524;74.366;2023-02-11T01:40:17;98918.44;;;12.88;47.05
31225;BME280;17847;31.524;74.366;2023-02-11T01:43:09;98918.66;;;12.86;46.32
31225;BME280;17847;31.524;74.366;2023-02-11T01:49:09;98919.09;;;12.83;45.44
31225;BME280;17847;31.524;74.366;2023-02-11T01:51:57;98926.84;;;12.85;44.98
31225;BME280;17847;31.524;74.366;2023-02-11T01:54:54;98927.06;;;12.90;45.03
31225;BME280;17847;31.524;74.366;2023-02-11T01:57:58;98939.13;;;12.99;48.36
31225;BME280;17847;31.524;74.366;2023-02-11T02:00:49;98937.72;;;13.03;47.54
31225;BME280;17847;31.524;74.366;2023-02-11T02:03:33;98941.78;;;13.05;49.55
31225;BME280;17847;31.524;74.366;2023-02-11T02:06:42;98956.53;;;12.95;49.47
31225;BME280;17847;31.524;74.366;2023-02-11T02:09:30;98950.56;;;12.93;49.13
31225;BME280;17847;31.524;74.366;2023-02-11T02:12:21;98961.63;;;12.90;48.36
31225;BME280;17847;31.524;74.366;2023-02-11T02:18:17;98982.69;;;12.98;49.35
31225;BME280;17847;31.524;74.366;2023-02-11T02:24:26;98982.72;;;13.04;50.06
31225;BME280;17847;31.524;74.366;2023-02-11T02:36:34;99003.47;;;13.35;47.91
31225;BME280;17847;31.524;74.366;2023-02-11T02:39:22;98992.84;;;13.48;46.53
31225;BME280;17847;31.524;74.366;2023-02-11T02:42:14;99006.16;;;13.62;47.15
31225;BME280;17847;31.524;74.366;2023-02-11T02:44:57;99020.47;;;13.74;48.09
31225;BME280;17847;31.524;74.366;2023-02-11T02:47:45;99014.13;;;13.75;47.37
31225;BME280;17847;31.524;74.366;2023-02-11T02:50:33;99029.91;;;13.89;45.89
31225;BME280;17847;31.524;74.366;2023-02-11T02:54:15;99029.09;;;14.02;47.17
31225;BME280;17847;31.524;74.366;2023-02-11T02:56:52;99036.41;;;14.39;44.05
31225;BME280;17847;31.524;74.366;2023-02-11T03:06:47;99052.72;;;15.58;42.62
31225;BME280;17847;31.524;74.366;2023-02-11T03:09:15;99044.53;;;16.09;40.11
31225;BME280;17847;31.524;74.366;2023-02-11T03:12:08;99055.47;;;16.26;39.25
31225;BME280;17847;31.524;74.366;2023-02-11T03:14:51;99062.28;;;16.65;40.44
31225;BME280;17847;31.524;74.366;2023-02-11T03:17:43;99070.31;;;16.65;40.21
31225;BME280;17847;31.524;74.366;2023-02-11T03:20:28;99061.66;;;16.99;38.05
31225;BME280;17847;31.524;74.366;2023-02-11T03:23:36;99073.09;;;17.25;39.34
31225;BME280;17847;31.524;74.366;2023-02-11T03:29:34;99093.59;;;17.90;36.67
31225;BME280;17847;31.524;74.366;2023-02-11T03:32:28;99086.63;;;18.24;38.53
31225;BME280;17847;31.524;74.366;2023-02-11T03:35:34;99102.28;;;18.51;37.01
31225;BME280;17847;31.524;74.366;2023-02-11T03:38:26;99106.53;;;18.58;35.58
31225;BME280;17847;31.524;74.366;2023-02-11T03:41:20;99091.78;;;18.84;35.60
31225;BME280;17847;31.524;74.366;2023-02-11T03:44:05;99111.44;;;19.13;34.82
31225;BME280;17847;31.524;74.366;2023-02-11T03:46:55;99108.03;;;19.29;36.00
31225;BME280;17847;31.524;74.366;2023-02-11T03:49:38;99104.22;;;19.42;33.73
31225;BME280;17847;31.524;74.366;2023-02-11T03:52:28;99108.56;;;19.71;36.11
31225;BME280;17847;31.524;74.366;2023-02-11T03:55:16;99125.13;;;19.80;33.77
31225;BME280;17847;31.524;74.366;2023-02-11T03:58:07;99113.41;;;20.02;32.02
31225;BME280;17847;31.524;74.366;2023-02-11T04:00:49;99121.03;;;20.39;34.04
31225;BME280;17847;31.524;74.366;2023-02-11T04:03:37;99110.19;;;20.34;31.96
31225;BME280;17847;31.524;74.366;2023-02-11T04:06:20;99111.00;;;20.51;32.83
31225;BME280;17847;31.524;74.366;2023-02-11T04:09:09;99127.03;;;20.12;32.35
31225;BME280;17847;31.524;74.366;2023-02-11T04:11:51;99111.66;;;20.41;31.79
31225;BME280;17847;31.524;74.366;2023-02-11T04:14:39;99130.56;;;21.01;32.19
31225;BME280;17847;31.524;74.366;2023-02-11T04:17:22;99128.66;;;20.63;30.38
31225;BME280;17847;31.524;74.366;2023-02-11T04:20:18;99131.50;;;21.12;31.81
31225;BME280;17847;31.524;74.366;2023-02-11T04:23:00;99141.84;;;21.20;29.10
31225;BME280;17847;31.524;74.366;2023-02-11T04:25:49;99132.34;;;21.34;29.61
31225;BME280;17847;31.524;74.366;2023-02-11T04:28:32;99139.00;;;21.75;28.59
31225;BME280;17847;31.524;74.366;2023-02-11T04:31:28;99141.53;;;21.87;29.01
31225;BME280;17847;31.524;74.366;2023-02-11T04:34:24;99140.78;;;22.18;26.48
31225;BME280;17847;31.524;74.366;2023-02-11T04:37:06;99153.56;;;22.01;27.27
31225;BME280;17847;31.524;74.366;2023-02-11T04:39:54;99147.09;;;22.29;26.73
31225;BME280;17847;31.524;74.366;2023-02-11T04:42:37;99141.88;;;22.54;26.82
31225;BME280;17847;31.524;74.366;2023-02-11T04:45:25;99147.94;;;22.34;27.78
31225;BME280;17847;31.524;74.366;2023-02-11T04:48:08;99152.97;;;22.58;28.97
31225;BME280;17847;31.524;74.366;2023-02-11T04:50:56;99161.47;;;22.71;27.57
31225;BME280;17847;31.524;74.366;2023-02-11T04:53:39;99165.91;;;22.56;30.88
31225;BME280;17847;31.524;74.366;2023-02-11T04:56:28;99169.88;;;22.80;29.33
31225;BME280;17847;31.524;74.366;2023-02-11T04:59:11;99176.03;;;23.12;28.83
31225;BME280;17847;31.524;74.366;2023-02-11T05:01:59;99180.19;;;23.35;27.02
31225;BME280;17847;31.524;74.366;2023-02-11T05:04:42;99171.50;;;23.23;25.40
31225;BME280;17847;31.524;74.366;2023-02-11T05:07:30;99179.31;;;23.14;27.75
31225;BME280;17847;31.524;74.366;2023-02-11T05:10:13;99178.78;;;23.22;27.46
31225;BME280;17847;31.524;74.366;2023-02-11T05:13:01;99192.44;;;23.48;27.80
31225;BME280;17847;31.524;74.366;2023-02-11T05:15:44;99195.53;;;23.82;28.91
31225;BME280;17847;31.524;74.366;2023-02-11T05:18:32;99193.81;;;23.45;26.50
31225;BME280;17847;31.524;74.366;2023-02-11T05:21:17;99199.84;;;23.20;29.13
31225;BME280;17847;31.524;74.366;2023-02-11T05:24:07;99203.22;;;23.43;25.95
31225;BME280;17847;31.524;74.366;2023-02-11T05:26:49;99202.34;;;23.89;28.00
31225;BME280;17847;31.524;74.366;2023-02-11T05:29:45;99188.44;;;23.60;26.95
31225;BME280;17847;31.524;74.366;2023-02-11T05:32:21;99201.13;;;23.50;26.51
31225;BME280;17847;31.524;74.366;2023-02-11T05:35:16;99198.16;;;23.56;27.59
31225;BME280;17847;31.524;74.366;2023-02-11T05:37:59;99195.84;;;23.33;26.48
31225;BME280;17847;31.524;74.366;2023-02-11T05:40:47;99206.13;;;23.31;27.19
31225;BME280;17847;31.524;74.366;2023-02-11T05:43:23;99201.13;;;23.50;27.85
31225;BME280;17847;31.524;74.366;2023-02-11T05:46:18;99204.16;;;23.68;29.24
31225;BME280;17847;31.524;74.366;2023-02-11T05:48:54;99199.94;;;23.36;26.91
31225;BME280;17847;31.524;74.366;2023-02-11T05:51:49;99202.84;;;23.86;27.77
31225;BME280;17847;31.524;74.366;2023-02-11T05:54:25;99200.69;;;23.83;32.95
31225;BME280;17847;31.524;74.366;2023-02-11T05:57:20;99195.31;;;24.03;27.87
31225;BME280;17847;31.524;74.366;2023-02-11T06:00:03;99191.81;;;24.13;30.94
31225;BME280;17847;31.524;74.366;2023-02-11T06:02:52;99191.53;;;24.09;31.17
31225;BME280;17847;31.524;74.366;2023-02-11T06:05:35;99191.63;;;24.50;29.51
31225;BME280;17847;31.524;74.366;2023-02-11T06:08:30;99184.56;;;24.24;32.08
31225;BME280;17847;31.524;74.366;2023-02-11T06:11:14;99189.94;;;24.13;29.46
31225;BME280;17847;31.524;74.366;2023-02-11T06:14:03;99195.47;;;23.56;28.32
31225;BME280;17847;31.524;74.366;2023-02-11T06:16:45;99190.31;;;23.55;30.89
31225;BME280;17847;31.524;74.366;2023-02-11T06:19:34;99183.91;;;23.81;27.48
31225;BME280;17847;31.524;74.366;2023-02-11T06:22:16;99184.50;;;23.93;28.90
31225;BME280;17847;31.524;74.366;2023-02-11T06:25:05;99188.22;;;23.67;29.73
31225;BME280;17847;31.524;74.366;2023-02-11T06:27:48;99186.91;;;23.22;35.63
31225;BME280;17847;31.524;74.366;2023-02-11T06:30:37;99185.34;;;23.37;32.94
31225;BME280;17847;31.524;74.366;2023-02-11T06:33:34;99178.81;;;23.33;32.53
31225;BME280;17847;31.524;74.366;2023-02-11T06:36:19;99183.88;;;23.71;33.18
31225;BME280;17847;31.524;74.366;2023-02-11T06:39:09;99185.16;;;23.48;30.21
31225;BME280;17847;31.524;74.366;2023-02-11T06:41:54;99181.91;;;23.51;28.89
31225;BME280;17847;31.524;74.366;2023-02-11T06:44:46;99180.31;;;23.55;27.53
31225;BME280;17847;31.524;74.366;2023-02-11T06:47:29;99178.69;;;23.54;27.54
31225;BME280;17847;31.524;74.366;2023-02-11T06:50:17;99188.41;;;23.45;30.00
31225;BME280;17847;31.524;74.366;2023-02-11T06:53:00;99171.81;;;23.32;28.55
31225;BME280;17847;31.524;74.366;2023-02-11T06:55:49;99179.91;;;23.32;27.56
31225;BME280;17847;31.524;74.366;2023-02-11T06:58:31;99169.38;;;23.30;28.26
31225;BME280;17847;31.524;74.366;2023-02-11T07:01:22;99168.31;;;23.41;29.28
31225;BME280;17847;31.524;74.366;2023-02-11T07:04:04;99153.53;;;23.54;28.93
31225;BME280;17847;31.524;74.366;2023-02-11T07:06:53;99137.78;;;23.41;27.30
31225;BME280;17847;31.524;74.366;2023-02-11T07:09:29;99140.50;;;23.41;31.39
31225;BME280;17847;31.524;74.366;2023-02-11T07:12:24;99131.28;;;23.42;30.42
31225;BME280;17847;31.524;74.366;2023-02-11T07:15:06;99133.53;;;23.55;27.08
31225;BME280;17847;31.524;74.366;2023-02-11T07:17:55;99128.13;;;23.50;28.50
31225;BME280;17847;31.524;74.366;2023-02-11T07:20:38;99132.44;;;23.51;26.08
31225;BME280;17847;31.524;74.366;2023-02-11T07:23:27;99122.69;;;23.55;27.14
31225;BME280;17847;31.524;74.366;2023-02-11T07:26:08;99118.66;;;23.52;26.72
31225;BME280;17847;31.524;74.366;2023-02-11T07:29:03;99108.63;;;23.48;27.93
31225;BME280;17847;31.524;74.366;2023-02-11T07:31:52;99104.00;;;23.43;28.28
31225;BME280;17847;31.524;74.366;2023-02-11T07:34:35;99098.38;;;23.60;29.26
31225;BME280;17847;31.524;74.366;2023-02-11T07:37:23;99091.34;;;23.64;27.40
31225;BME280;17847;31.524;74.366;2023-02-11T07:40:07;99088.41;;;23.70;28.01
31225;BME280;17847;31.524;74.366;2023-02-11T07:42:55;99083.75;;;23.51;24.95
31225;BME280;17847;31.524;74.366;2023-02-11T07:45:38;99071.63;;;23.58;24.25
31225;BME280;17847;31.524;74.366;2023-02-11T07:48:26;99073.22;;;23.59;25.71
31225;BME280;17847;31.524;74.366;2023-02-11T07:51:13;99061.53;;;23.39;24.78
31225;BME280;17847;31.524;74.366;2023-02-11T07:54:01;99052.13;;;23.51;25.25
31225;BME280;17847;31.524;74.366;2023-02-11T07:56:44;99052.63;;;23.43;23.97
31225;BME280;17847;31.524;74.366;2023-02-11T07:59:32;99045.84;;;23.36;26.56
31225;BME280;17847;31.524;74.366;2023-02-11T08:02:15;99041.59;;;23.45;26.66
31225;BME280;17847;31.524;74.366;2023-02-11T08:05:03;99038.06;;;23.44;25.00
31225;BME280;17847;31.524;74.366;2023-02-11T08:07:46;99032.34;;;23.41;23.05
31225;BME280;17847;31.524;74.366;2023-02-11T08:10:37;99034.81;;;23.47;22.86
31225;BME280;17847;31.524;74.366;2023-02-11T08:13:20;99019.34;;;23.33;24.11
31225;BME280;17847;31.524;74.366;2023-02-11T08:16:08;99030.78;;;23.45;24.81
31225;BME280;17847;31.524;74.366;2023-02-11T08:18:52;99027.75;;;23.31;22.50
31225;BME280;17847;31.524;74.366;2023-02-11T08:21:42;99032.34;;;23.41;25.00
31225;BME280;17847;31.524;74.366;2023-02-11T08:24:25;99034.28;;;23.45;24.14
31225;BME280;17847;31.524;74.366;2023-02-11T08:27:13;99035.31;;;23.34;24.92
31225;BME280;17847;31.524;74.366;2023-02-11T08:29:56;99023.44;;;23.40;24.89
31225;BME280;17847;31.524;74.366;2023-02-11T08:32:44;99020.94;;;23.23;25.51
31225;BME280;17847;31.524;74.366;2023-02-11T08:35:27;99011.75;;;23.24;25.24
31225;BME280;17847;31.524;74.366;2023-02-11T08:38:15;99013.13;;;23.22;25.08
31225;BME280;17847;31.524;74.366;2023-02-11T08:40:59;99016.06;;;23.20;25.60
31225;BME280;17847;31.524;74.366;2023-02-11T08:43:48;99011.75;;;23.24;24.10
31225;BME280;17847;31.524;74.366;2023-02-11T08:46:31;99013.13;;;23.22;25.06
31225;BME280;17847;31.524;74.366;2023-02-11T08:49:20;99012.25;;;23.06;25.24
31225;BME280;17847;31.524;74.366;2023-02-11T08:52:03;99017.69;;;23.16;23.21
31225;BME280;17847;31.524;74.366;2023-02-11T08:54:51;99010.66;;;23.20;24.30
31225;BME280;17847;31.524;74.366;2023-02-11T08:57:34;98995.50;;;23.04;24.93
31225;BME280;17847;31.524;74.366;2023-02-11T09:00:22;98997.94;;;23.11;24.10
31225;BME280;17847;31.524;74.366;2023-02-11T09:03:05;98994.97;;;23.07;21.79
31225;BME280;17847;31.524;74.366;2023-02-11T09:05:53;98997.66;;;23.02;22.49
31225;BME280;17847;31.524;74.366;2023-02-11T09:08:42;98996.81;;;22.92;23.33
31225;BME280;17847;31.524;74.366;2023-02-11T09:11:33;98996.53;;;22.88;23.45
31225;BME280;17847;31.524;74.366;2023-02-11T09:14:21;98997.59;;;22.82;22.25
31225;BME280;17847;31.524;74.366;2023-02-11T09:17:09;98989.78;;;22.91;23.31
31225;BME280;17847;31.524;74.366;2023-02-11T09:19:52;98993.25;;;22.76;23.67
31225;BME280;17847;31.524;74.366;2023-02-11T09:22:40;98981.66;;;22.86;23.91
31225;BME280;17847;31.524;74.366;2023-02-11T09:25:23;98986.25;;;22.85;24.28
31225;BME280;17847;31.524;74.366;2023-02-11T09:28:12;98982.72;;;22.79;23.12
31225;BME280;17847;31.524;74.366;2023-02-11T09:30:55;98986.22;;;22.70;24.49
31225;BME280;17847;31.524;74.366;2023-02-11T09:33:45;98990.44;;;22.56;23.47
31225;BME280;17847;31.524;74.366;2023-02-11T09:36:34;98994.19;;;22.55;23.11
31225;BME280;17847;31.524;74.366;2023-02-11T09:39:22;98989.03;;;22.43;22.87
31225;BME280;17847;31.524;74.366;2023-02-11T09:42:47;98989.31;;;22.47;23.71
31225;BME280;17847;31.524;74.366;2023-02-11T09:45:54;98985.78;;;22.46;23.13
31225;BME280;17847;31.524;74.366;2023-02-11T09:48:40;98974.69;;;22.37;22.72
31225;BME280;17847;31.524;74.366;2023-02-11T09:51:39;98987.56;;;22.25;23.26
31225;BME280;17847;31.524;74.366;2023-02-11T09:54:44;98980.31;;;22.26;23.67
31225;BME280;17847;31.524;74.366;2023-02-11T09:57:44;98988.06;;;22.22;22.20
31225;BME280;17847;31.524;74.366;2023-02-11T10:00:35;98985.41;;;22.27;23.40
31225;BME280;17847;31.524;74.366;2023-02-11T10:03:53;98985.91;;;22.19;24.89
31225;BME280;17847;31.524;74.366;2023-02-11T10:12:45;98983.66;;;22.06;22.92
31225;BME280;17847;31.524;74.366;2023-02-11T10:16:01;98989.28;;;22.00;21.64
31225;BME280;17847;31.524;74.366;2023-02-11T10:18:56;98998.19;;;22.00;22.00
31225;BME280;17847;31.524;74.366;2023-02-11T10:22:21;98997.53;;;21.88;22.39
31225;BME280;17847;31.524;74.366;2023-02-11T10:25:26;99002.09;;;21.87;22.71
31225;BME280;17847;31.524;74.366;2023-02-11T10:28:20;98992.09;;;21.83;23.19
31225;BME280;17847;31.524;74.366;2023-02-11T10:31:09;98996.66;;;21.77;23.29
31225;BME280;17847;31.524;74.366;2023-02-11T10:36:47;98996.28;;;21.64;23.18
31225;BME280;17847;31.524;74.366;2023-02-11T10:39:35;99002.72;;;21.63;21.50
31225;BME280;17847;31.524;74.366;2023-02-11T10:42:20;99004.78;;;21.50;21.81
31225;BME280;17847;31.524;74.366;2023-02-11T10:45:21;98997.19;;;21.47;21.25
31225;BME280;17847;31.524;74.366;2023-02-11T10:51:18;98993.19;;;21.23;22.85
31225;BME280;17847;31.524;74.366;2023-02-11T10:56:59;98987.75;;;21.18;22.80
31225;BME280;17847;31.524;74.366;2023-02-11T10:59:42;98998.22;;;21.15;24.10
31225;BME280;17847;31.524;74.366;2023-02-11T11:02:33;98991.88;;;21.04;23.33
31225;BME280;17847;31.524;74.366;2023-02-11T11:05:20;98992.88;;;20.98;24.11
31225;BME280;17847;31.524;74.366;2023-02-11T11:08:10;99000.09;;;20.92;24.61
31225;BME280;17847;31.524;74.366;2023-02-11T11:16:37;99005.16;;;20.67;25.52
31225;BME280;17847;31.524;74.366;2023-02-11T11:19:25;99000.88;;;20.66;26.18
31225;BME280;17847;31.524;74.366;2023-02-11T11:22:21;99009.41;;;20.63;25.78
31225;BME280;17847;31.524;74.366;2023-02-11T11:25:24;99005.88;;;20.57;27.26
31225;BME280;17847;31.524;74.366;2023-02-11T11:28:21;99001.41;;;20.46;27.06
31225;BME280;17847;31.524;74.366;2023-02-11T11:31:32;99015.84;;;20.40;27.85
31225;BME280;17847;31.524;74.366;2023-02-11T11:34:30;98994.19;;;20.30;27.59
31225;BME280;17847;31.524;74.366;2023-02-11T11:45:58;99010.41;;;20.02;28.57
31225;BME280;17847;31.524;74.366;2023-02-11T11:48:49;99012.38;;;20.06;29.08
31225;BME280;17847;31.524;74.366;2023-02-11T11:51:34;99016.47;;;20.09;29.52
31225;BME280;17847;31.524;74.366;2023-02-11T11:54:24;99014.34;;;19.94;29.93
31225;BME280;17847;31.524;74.366;2023-02-11T11:57:15;99016.44;;;19.92;29.42
31225;BME280;17847;31.524;74.366;2023-02-11T12:00:35;99027.06;;;19.82;30.29
31225;BME280;17847;31.524;74.366;2023-02-11T12:06:44;99037.22;;;19.63;30.50
31225;BME280;17847;31.524;74.366;2023-02-11T12:15:33;99043.22;;;19.54;30.73
31225;BME280;17847;31.524;74.366;2023-02-11T12:18:37;99042.91;;;19.39;29.59
31225;BME280;17847;31.524;74.366;2023-02-11T12:27:34;99047.69;;;19.20;30.23
31225;BME280;17847;31.524;74.366;2023-02-11T12:40:08;99073.06;;;19.01;32.05
31225;BME280;17847;31.524;74.366;2023-02-11T12:43:30;99071.34;;;18.83;33.96
31225;BME280;17847;31.524;74.366;2023-02-11T12:46:29;99080.34;;;18.89;34.81
31225;BME280;17847;31.524;74.366;2023-02-11T12:52:39;99087.81;;;18.63;35.74
31225;BME280;17847;31.524;74.366;2023-02-11T12:55:41;99095.31;;;18.61;36.37
31225;BME280;17847;31.524;74.366;2023-02-11T12:58:26;99096.13;;;18.62;37.30
31225;BME280;17847;31.524;74.366;2023-02-11T13:01:28;99091.19;;;18.47;37.60
31225;BME280;17847;31.524;74.366;2023-02-11T13:04:16;99106.72;;;18.45;38.27
31225;BME280;17847;31.524;74.366;2023-02-11T13:07:16;99101.81;;;18.30;37.80
31225;BME280;17847;31.524;74.366;2023-02-11T13:10:10;99102.50;;;18.26;37.12
31225;BME280;17847;31.524;74.366;2023-02-11T13:13:21;99117.31;;;18.17;39.22
31225;BME280;17847;31.524;74.366;2023-02-11T13:19:31;99125.56;;;18.04;37.06
31225;BME280;17847;31.524;74.366;2023-02-11T13:22:49;99119.34;;;17.91;39.38
31225;BME280;17847;31.524;74.366;2023-02-11T13:25:52;99122.47;;;17.88;37.92
31225;BME280;17847;31.524;74.366;2023-02-11T13:32:08;99139.13;;;17.79;37.59
31225;BME280;17847;31.524;74.366;2023-02-11T13:35:34;99139.06;;;17.67;38.92
31225;BME280;17847;31.524;74.366;2023-02-11T13:47:03;99149.59;;;17.32;41.63
31225;BME280;17847;31.524;74.366;2023-02-11T13:49:49;99157.31;;;17.22;42.46
31225;BME280;17847;31.524;74.366;2023-02-11T13:52:40;99156.16;;;17.18;41.24
31225;BME280;17847;31.524;74.366;2023-02-11T13:55:24;99155.41;;;17.11;40.13
31225;BME280;17847;31.524;74.366;2023-02-11T13:58:18;99156.66;;;17.08;41.40
31225;BME280;17847;31.524;74.366;2023-02-11T14:01:00;99165.59;;;17.02;40.16
31225;BME280;17847;31.524;74.366;2023-02-11T14:04:17;99168.84;;;16.86;41.15
31225;BME280;17847;31.524;74.366;2023-02-11T14:07:26;99174.72;;;16.77;42.21
31225;BME280;17847;31.524;74.366;2023-02-11T14:13:32;99178.75;;;16.61;44.53
31225;BME280;17847;31.524;74.366;2023-02-11T14:16:22;99179.22;;;16.58;45.06
31225;BME280;17847;31.524;74.366;2023-02-11T14:22:38;99191.38;;;16.47;45.83
31225;BME280;17847;31.524;74.366;2023-02-11T14:25:25;99185.31;;;16.34;45.79
31225;BME280;17847;31.524;74.366;2023-02-11T14:28:22;99204.88;;;16.34;47.56
31225;BME280;17847;31.524;74.366;2023-02-11T14:31:17;99202.44;;;16.33;46.47
31225;BME280;17847;31.524;74.366;2023-02-11T14:40:51;99205.44;;;16.11;47.57
31225;BME280;17847;31.524;74.366;2023-02-11T14:43:45;99206.31;;;16.05;47.31
31225;BME280;17847;31.524;74.366;2023-02-11T14:46:24;99205.94;;;16.02;48.85
31225;BME280;17847;31.524;74.366;2023-02-11T14:55:27;99222.25;;;15.81;47.74
31225;BME280;17847;31.524;74.366;2023-02-11T14:58:22;99219.81;;;15.79;50.04
31225;BME280;17847;31.524;74.366;2023-02-11T15:01:30;99221.88;;;15.77;49.05
31225;BME280;17847;31.524;74.366;2023-02-11T15:04:27;99220.66;;;15.73;49.49
31225;BME280;17847;31.524;74.366;2023-02-11T15:07:17;99223.75;;;15.70;50.20
31225;BME280;17847;31.524;74.366;2023-02-11T15:10:01;99229.94;;;15.64;49.71
31225;BME280;17847;31.524;74.366;2023-02-11T15:12:50;99232.41;;;15.65;52.02
31225;BME280;17847;31.524;74.366;2023-02-11T15:15:33;99233.25;;;15.59;50.34
31225;BME280;17847;31.524;74.366;2023-02-11T15:18:30;99235.94;;;15.53;50.65
31225;BME280;17847;31.524;74.366;2023-02-11T15:21:25;99236.75;;;15.47;50.37
31225;BME280;17847;31.524;74.366;2023-02-11T15:24:25;99238.41;;;15.48;50.99
31225;BME280;17847;31.524;74.366;2023-02-11T15:27:21;99238.81;;;15.45;52.50
31225;BME280;17847;31.524;74.366;2023-02-11T15:33:21;99248.06;;;15.36;52.30
31225;BME280;17847;31.524;74.366;2023-02-11T15:36:10;99243.78;;;15.35;51.27
31225;BME280;17847;31.524;74.366;2023-02-11T15:39:29;99242.38;;;15.25;53.95
31225;BME280;17847;31.524;74.366;2023-02-11T15:42:38;99240.31;;;15.14;52.91
31225;BME280;17847;31.524;74.366;2023-02-11T15:45:38;99247.53;;;15.01;52.91
31225;BME280;17847;31.524;74.366;2023-02-11T15:48:36;99249.19;;;15.08;55.24
31225;BME280;17847;31.524;74.366;2023-02-11T15:51:36;99254.91;;;15.05;54.70
31225;BME280;17847;31.524;74.366;2023-02-11T15:54:21;99253.06;;;15.06;54.63
31225;BME280;17847;31.524;74.366;2023-02-11T15:57:11;99248.97;;;15.03;54.69
31225;BME280;17847;31.524;74.366;2023-02-11T15:59:54;99255.56;;;14.94;54.04
31225;BME280;17847;31.524;74.366;2023-02-11T16:02:47;99251.44;;;14.92;55.29
31225;BME280;17847;31.524;74.366;2023-02-11T16:05:36;99261.72;;;14.95;55.03
31225;BME280;17847;31.524;74.366;2023-02-11T16:08:27;99260.88;;;14.94;56.05
31225;BME280;17847;31.524;74.366;2023-02-11T16:11:32;99257.59;;;14.92;56.26
31225;BME280;17847;31.524;74.366;2023-02-11T16:17:27;99259.25;;;14.80;55.66
31225;BME280;17847;31.524;74.366;2023-02-11T16:20:18;99265.81;;;14.77;56.54
31225;BME280;17847;31.524;74.366;2023-02-11T16:23:02;99263.34;;;14.69;57.17
31225;BME280;17847;31.524;74.366;2023-02-11T16:26:39;99266.63;;;14.65;56.63
31225;BME280;17847;31.524;74.366;2023-02-11T16:29:13;99279.53;;;14.61;56.67
31225;BME280;17847;31.524;74.366;2023-02-11T16:32:17;99274.00;;;14.56;56.37
31225;BME280;17847;31.524;74.366;2023-02-11T16:35:13;99278.31;;;14.51;57.03
31225;BME280;17847;31.524;74.366;2023-02-11T16:37:55;99279.75;;;14.53;56.23
31225;BME280;17847;31.524;74.366;2023-02-11T16:40:44;99284.84;;;14.48;56.89
31225;BME280;17847;31.524;74.366;2023-02-11T16:43:27;99285.88;;;14.41;57.29
31225;BME280;17847;31.524;74.366;2023-02-11T16:46:17;99288.75;;;14.39;56.91
31225;BME280;17847;31.524;74.366;2023-02-11T16:49:22;99283.16;;;14.34;56.88
31225;BME280;17847;31.524;74.366;2023-02-11T16:52:14;99284.59;;;14.30;57.15
31225;BME280;17847;31.524;74.366;2023-02-11T16:54:58;99279.69;;;14.33;56.45
31225;BME280;17847;31.524;74.366;2023-02-11T16:57:49;99284.00;;;14.28;57.10